Other Surface Observations
Issued by NWS Great Falls, MT

Home | Current Version | Previous Version | Text Only | Print | Product List | Glossary On
Versions: 1 2 3 4 5 6 7 8 9 10 11 12 13 14 15 16 17 18 19 20 21 22 23 24 25 26 27 28 29 30 31 32 33 34 35 36 37 38 39 40 41 42 43 44 45 46 47 48 49 50
000
SXUS55 KTFX 190410
OSOTFX
AREA AWOS OBSERVATIONS
NATIONAL WEATHER SERVICE GREAT FALLS MT
1005 PM MDT THU SEP 18 2014

METAR KPWD 190400Z AUTO 23003KT 10SM 19/11 A2960 RMK PLENTYWOOD
METAR KPO1 190400Z AUTO 26006KT 18/12 RMK POPLAR
METAR K1S3 190400Z AUTO 25005KT 10SM 21/13 A2971 RMK FORSYTH
METAR KS71 190400Z AUTO 00000KT 10SM 17/11 A2963 RMK CHINOOK
METAR K6S0 190400Z AUTO 10SM 15/11 A2984 RMK BIG TIMBER
METAR KEKS 190400Z AUTO 13008KT 10SM 15/10 A2999 RMK ENNIS
METAR K38S 190400Z AUTO 00000KT 10SM 16/07 A2992 RMK DEER LODGE
METAR K3U3 190400Z AUTO 22003KT 13/08 A2989 RMK ANACONDA
METAR K6S5 190400Z AUTO 11003KT 9SM 17/08 A2986 RMK HAMILTON
METAR KS59 190400Z AUTO 00000KT 10SM 18/09 A2980 RMK LIBBY



USA.gov is the U.S. government's official web portal to all federal, state and local government web resources and services.